createdAt,value
2019-05-03T00:04:33.871Z,49.27
2019-05-03T00:07:42.612Z,49.12
2019-05-03T00:19:03.394Z,49.40
2019-05-03T00:21:32.871Z,49.61
2019-05-03T00:24:02.726Z,49.55
2019-05-03T00:27:12.477Z,49.47
2019-05-03T00:32:43.450Z,50.02
2019-05-03T00:35:52.132Z,50.15
2019-05-03T00:38:22.132Z,49.68
2019-05-03T00:40:52.390Z,50.33
2019-05-03T00:43:23.246Z,50.51
2019-05-03T00:45:52.682Z,50.61
2019-05-03T00:48:22.320Z,50.62
2019-05-03T00:50:51.899Z,50.29
2019-05-03T00:53:22.386Z,50.28
2019-05-03T00:55:52.995Z,50.07
2019-05-03T00:58:22.697Z,49.80
2019-05-03T01:00:52.567Z,49.74
2019-05-03T01:09:33.989Z,49.14
2019-05-03T01:12:03.530Z,48.99
2019-05-03T01:17:23.302Z,48.94
2019-05-03T01:19:52.882Z,48.84
2019-05-03T01:22:22.755Z,48.75
2019-05-03T01:24:52.169Z,48.57
2019-05-03T01:27:22.092Z,48.76
2019-05-03T01:29:52.665Z,48.84
2019-05-03T01:32:22.362Z,48.86
2019-05-03T01:34:53.608Z,48.85
2019-05-03T01:37:23.109Z,48.83
2019-05-03T01:39:52.780Z,48.87
2019-05-03T01:42:23.952Z,48.81
2019-05-03T01:44:53.551Z,49.26
2019-05-03T01:55:57.102Z,54.00
2019-05-03T01:58:26.728Z,54.39
2019-05-03T02:01:34.024Z,55.52
2019-05-03T02:04:22.752Z,55.42
2019-05-03T02:06:52.112Z,56.08
2019-05-03T02:10:02.801Z,55.88
2019-05-03T02:12:32.666Z,55.99
2019-05-03T02:15:02.539Z,55.33
2019-05-03T02:18:14.871Z,55.77
2019-05-03T02:27:01.974Z,54.62
2019-05-03T02:29:32.567Z,53.92
2019-05-03T02:35:18.570Z,53.94
2019-05-03T02:46:56.387Z,53.46
2019-05-03T02:52:30.649Z,52.08
2019-05-03T02:55:00.138Z,50.85
2019-05-03T02:57:29.731Z,50.62
2019-05-03T03:00:38.460Z,49.99
2019-05-03T03:03:07.962Z,50.14
2019-05-03T03:09:32.389Z,50.45
2019-05-03T03:15:16.499Z,49.95
2019-05-03T03:24:25.876Z,49.31
2019-05-03T03:36:46.065Z,49.03
2019-05-03T03:45:20.766Z,49.05
2019-05-03T03:57:18.314Z,48.94
2019-05-03T04:11:32.444Z,52.42
2019-05-03T04:14:41.080Z,52.56
2019-05-03T04:17:49.930Z,52.06
2019-05-03T04:23:26.349Z,50.81
2019-05-03T04:32:15.419Z,51.55
2019-05-03T04:37:57.972Z,50.99
2019-05-03T04:43:29.129Z,50.41
2019-05-03T04:46:17.514Z,49.98
2019-05-03T04:48:47.565Z,50.07
2019-05-03T04:54:50.962Z,50.07
2019-05-03T05:00:25.356Z,50.42
2019-05-03T05:02:55.263Z,51.05
2019-05-03T05:08:20.813Z,52.03
2019-05-03T05:10:50.139Z,52.03
2019-05-03T05:13:58.982Z,51.62
2019-05-03T05:19:49.359Z,51.28
2019-05-03T05:25:19.447Z,49.91
2019-05-03T05:34:06.359Z,50.93
2019-05-03T05:51:37.184Z,52.50
2019-05-03T05:54:06.617Z,52.70
2019-05-03T06:02:35.904Z,53.34
2019-05-03T06:08:32.847Z,53.75
2019-05-03T06:14:24.544Z,54.41
2019-05-03T06:17:34.850Z,54.64
2019-05-03T06:20:45.083Z,55.04
2019-05-03T06:23:34.775Z,55.04
2019-05-03T06:26:44.357Z,55.72
2019-05-03T06:29:15.298Z,55.72
2019-05-03T06:32:05.288Z,55.04
2019-05-03T06:40:32.735Z,55.09
2019-05-03T06:43:08.374Z,55.51
2019-05-03T06:51:30.382Z,56.29
2019-05-03T06:53:59.782Z,55.94
2019-05-03T06:57:09.622Z,55.15
2019-05-03T06:59:59.627Z,55.12
2019-05-03T07:02:48.167Z,54.47
2019-05-03T07:08:32.128Z,52.98
2019-05-03T07:11:02.399Z,52.32
2019-05-03T07:13:31.961Z,51.80
2019-05-03T07:16:01.563Z,51.71
2019-05-03T07:18:31.174Z,51.25
2019-05-03T07:21:00.994Z,50.48
2019-05-03T07:23:30.488Z,50.77
2019-05-03T07:25:59.997Z,50.45
2019-05-03T07:31:25.520Z,49.56
2019-05-03T07:33:56.187Z,49.58
2019-05-03T07:39:21.293Z,49.28
2019-05-03T07:47:55.836Z,49.53
2019-05-03T07:50:26.645Z,50.10
2019-05-03T07:53:35.795Z,50.98
2019-05-03T07:59:20.116Z,52.98
2019-05-03T08:04:40.489Z,51.87
2019-05-03T08:07:29.344Z,52.15
2019-05-03T08:09:58.790Z,52.11
2019-05-03T08:12:28.297Z,51.56
2019-05-03T08:15:37.201Z,50.21
2019-05-03T08:21:16.310Z,49.13
2019-05-03T08:24:25.433Z,48.50
2019-05-03T08:27:35.974Z,48.30
2019-05-03T08:33:40.055Z,47.79
2019-05-03T08:36:10.049Z,46.55
2019-05-03T08:38:39.581Z,46.12
2019-05-03T08:49:55.475Z,44.98
2019-05-03T08:52:25.292Z,43.80
2019-05-03T08:54:55.169Z,43.29
2019-05-03T08:57:25.442Z,43.86
2019-05-03T08:59:55.928Z,44.36
2019-05-03T09:02:25.962Z,43.32
2019-05-03T09:04:57.357Z,43.91
2019-05-03T09:11:00.181Z,43.16
2019-05-03T09:13:45.651Z,43.00
2019-05-03T09:16:55.625Z,43.54
2019-05-03T09:22:16.879Z,43.95
2019-05-03T09:24:46.346Z,43.35
2019-05-03T09:27:55.390Z,43.38
2019-05-03T09:30:26.942Z,42.73
2019-05-03T09:32:56.343Z,43.12
2019-05-03T09:35:32.617Z,42.58
2019-05-03T09:37:57.016Z,42.17
2019-05-03T09:40:26.358Z,42.00
2019-05-03T09:42:56.013Z,41.78
2019-05-03T09:45:25.515Z,42.14
2019-05-03T09:48:34.797Z,42.66
2019-05-03T09:57:31.800Z,42.68
2019-05-03T10:00:01.261Z,44.27
2019-05-03T10:03:10.003Z,43.45
2019-05-03T10:09:01.305Z,42.45
2019-05-03T10:11:30.756Z,41.78
2019-05-03T10:17:35.088Z,40.63
2019-05-03T10:28:57.299Z,39.33
2019-05-03T10:31:45.659Z,39.19
2019-05-03T10:34:15.578Z,38.34
2019-05-03T10:39:36.230Z,36.95
2019-05-03T10:42:45.014Z,36.49
2019-05-03T10:45:55.576Z,36.61
2019-05-03T10:48:25.995Z,36.52
2019-05-03T10:51:35.942Z,36.11
2019-05-03T10:54:06.938Z,35.75
2019-05-03T10:56:55.937Z,35.97
2019-05-03T10:59:26.698Z,36.39
2019-05-03T11:02:15.352Z,36.91
2019-05-03T11:07:45.726Z,37.48
2019-05-03T11:10:34.171Z,37.34
2019-05-03T11:13:05.867Z,36.74
2019-05-03T11:15:35.121Z,36.67
2019-05-03T11:18:46.005Z,37.15
2019-05-03T11:27:51.622Z,36.05
2019-05-03T11:30:21.105Z,35.65
2019-05-03T11:33:09.404Z,35.61
2019-05-03T11:35:58.350Z,35.42
2019-05-03T11:38:30.656Z,35.82
2019-05-03T11:47:16.441Z,35.25
2019-05-03T11:49:46.110Z,35.05
2019-05-03T11:52:17.356Z,35.22
2019-05-03T11:54:46.702Z,35.42
2019-05-03T12:05:57.855Z,34.58
2019-05-03T12:08:27.312Z,34.43
2019-05-03T12:11:16.186Z,34.14
2019-05-03T12:17:17.846Z,34.61
2019-05-03T12:19:38.341Z,34.54
2019-05-03T12:22:09.254Z,34.78
2019-05-03T12:27:35.326Z,35.53
2019-05-03T12:33:19.590Z,36.62
2019-05-03T12:35:48.937Z,37.48
2019-05-03T12:38:57.690Z,38.19
2019-05-03T12:41:27.439Z,38.08
2019-05-03T12:46:52.817Z,38.62
2019-05-03T12:49:22.289Z,38.99
2019-05-03T12:51:51.650Z,39.34
2019-05-03T12:55:00.518Z,40.02
2019-05-03T12:57:30.572Z,40.17
2019-05-03T13:00:39.919Z,40.00
2019-05-03T13:09:25.397Z,41.02
2019-05-03T13:14:45.508Z,40.32
2019-05-03T13:23:00.109Z,39.38
2019-05-03T13:25:29.555Z,39.38
2019-05-03T13:27:59.085Z,39.75
2019-05-03T13:30:28.466Z,40.35
2019-05-03T13:32:58.157Z,40.03
2019-05-03T13:38:22.849Z,41.37
2019-05-03T13:40:54.267Z,41.75
2019-05-03T13:46:25.598Z,41.57
2019-05-03T13:48:55.491Z,41.67
2019-05-03T13:51:25.307Z,41.75
2019-05-03T13:53:55.222Z,41.40
2019-05-03T13:57:05.058Z,41.34
2019-05-03T13:59:36.005Z,40.75
2019-05-03T14:02:15.237Z,40.12
2019-05-03T14:04:50.157Z,40.04
2019-05-03T14:07:11.419Z,40.43
2019-05-03T14:12:36.777Z,39.92
2019-05-03T14:15:45.689Z,39.19
2019-05-03T14:18:15.635Z,39.25
2019-05-03T14:21:05.997Z,39.44
2019-05-03T14:23:54.628Z,39.63
2019-05-03T14:26:24.631Z,40.01
2019-05-03T14:28:55.543Z,39.82
2019-05-03T14:32:05.298Z,40.20
2019-05-03T14:34:35.968Z,40.44
2019-05-03T14:37:05.365Z,40.29
2019-05-03T14:39:34.772Z,40.05
2019-05-03T14:45:18.895Z,40.80
2019-05-03T14:48:07.986Z,40.98
2019-05-03T14:50:37.518Z,40.98
2019-05-03T14:56:34.690Z,40.26
2019-05-03T14:59:23.227Z,40.64
2019-05-03T15:02:05.444Z,40.79
2019-05-03T15:04:35.483Z,40.89
2019-05-03T15:07:06.103Z,41.42
2019-05-03T15:12:32.715Z,40.57
2019-05-03T15:18:16.233Z,40.51
2019-05-03T15:20:45.763Z,40.30
2019-05-03T15:23:54.927Z,39.75
2019-05-03T15:26:38.211Z,40.08
2019-05-03T15:29:07.852Z,39.72
2019-05-03T15:31:37.896Z,39.77
2019-05-03T15:37:35.935Z,39.25
2019-05-03T15:40:46.335Z,38.89
2019-05-03T15:43:35.374Z,38.70
2019-05-03T15:46:25.049Z,38.76
2019-05-03T15:49:15.242Z,38.39
2019-05-03T15:51:46.309Z,38.75
2019-05-03T15:54:15.795Z,38.84
2019-05-03T15:57:25.650Z,39.24
2019-05-03T16:03:11.325Z,39.30
2019-05-03T16:08:41.737Z,39.26
2019-05-03T16:11:11.205Z,39.41
2019-05-03T16:13:40.616Z,39.20
2019-05-03T16:16:10.154Z,39.51
2019-05-03T16:18:39.536Z,39.99
2019-05-03T16:21:09.108Z,40.42
2019-05-03T16:29:12.602Z,39.07
2019-05-03T16:34:51.215Z,38.01
2019-05-03T16:37:20.820Z,38.23
2019-05-03T16:40:29.603Z,37.98
2019-05-03T16:46:01.037Z,37.03
2019-05-03T16:48:30.862Z,37.54
2019-05-03T16:51:00.421Z,37.19
2019-05-03T16:53:29.935Z,37.38
2019-05-03T16:55:59.335Z,37.57
2019-05-03T16:58:28.985Z,37.33
2019-05-03T17:01:37.968Z,36.98
2019-05-03T17:04:26.289Z,37.36
2019-05-03T17:07:15.228Z,37.21
2019-05-03T17:10:04.871Z,37.39
2019-05-03T17:12:34.929Z,36.93
2019-05-03T17:15:43.609Z,37.33
2019-05-03T17:21:40.713Z,36.42
2019-05-03T17:24:10.460Z,36.52
2019-05-03T17:35:05.299Z,35.72
2019-05-03T17:37:36.424Z,35.59
2019-05-03T17:40:45.884Z,36.80
2019-05-03T17:43:24.003Z,36.09
2019-05-03T17:48:35.424Z,35.44
2019-05-03T17:51:45.564Z,35.84
2019-05-03T17:57:30.270Z,36.45
2019-05-03T18:03:39.837Z,36.50
2019-05-03T18:06:19.185Z,36.94
2019-05-03T18:09:04.537Z,35.85
2019-05-03T18:11:38.463Z,36.01
2019-05-03T18:14:08.027Z,35.82
2019-05-03T18:16:37.498Z,36.20
2019-05-03T18:19:06.935Z,35.65
2019-05-03T18:21:36.796Z,35.74
2019-05-03T18:24:45.620Z,35.70
2019-05-03T18:27:17.212Z,36.03
2019-05-03T18:38:18.336Z,35.85
2019-05-03T18:40:47.855Z,35.21
2019-05-03T18:43:25.143Z,35.78
2019-05-03T18:46:14.308Z,34.95
2019-05-03T18:48:58.671Z,35.41
2019-05-03T18:51:28.083Z,35.35
2019-05-03T18:57:09.881Z,35.45
2019-05-03T18:59:39.292Z,35.02
2019-05-03T19:02:08.735Z,35.15
2019-05-03T19:04:55.293Z,35.17
2019-05-03T19:08:04.534Z,35.73
2019-05-03T19:13:36.887Z,35.58
2019-05-03T19:21:57.500Z,36.02
2019-05-03T19:24:27.350Z,36.24
2019-05-03T19:27:36.323Z,35.95
2019-05-03T19:30:26.721Z,36.22
2019-05-03T19:36:16.677Z,36.44
2019-05-03T19:41:41.449Z,36.44
2019-05-03T19:44:11.268Z,36.55
2019-05-03T19:46:40.775Z,36.81
2019-05-03T19:49:10.354Z,36.59
2019-05-03T19:51:39.795Z,36.74
2019-05-03T19:54:48.748Z,37.02
2019-05-03T20:11:46.061Z,37.37
2019-05-03T20:14:15.475Z,37.64
2019-05-03T20:17:24.205Z,37.79
2019-05-03T20:19:54.490Z,37.79
2019-05-03T20:23:05.256Z,38.07
2019-05-03T20:25:38.359Z,37.93
2019-05-03T20:28:07.876Z,37.91
2019-05-03T20:30:37.320Z,38.00
2019-05-03T20:33:06.739Z,37.99
2019-05-03T20:36:15.695Z,38.01
2019-05-03T20:38:45.320Z,38.11
2019-05-03T20:41:14.978Z,38.20
2019-05-03T20:47:06.335Z,38.64
2019-05-03T20:49:35.965Z,38.72
2019-05-03T20:52:05.460Z,38.82
2019-05-03T20:54:36.047Z,38.95
2019-05-03T20:57:06.078Z,38.98
2019-05-03T20:59:42.969Z,39.10
2019-05-03T21:05:31.733Z,39.49
2019-05-03T21:07:58.858Z,39.59
2019-05-03T21:10:28.252Z,39.89
2019-05-03T21:13:42.011Z,39.98
2019-05-03T21:19:24.747Z,40.06
2019-05-03T21:22:32.479Z,40.15
2019-05-03T21:25:21.769Z,40.16
2019-05-03T21:30:47.085Z,40.48
2019-05-03T21:39:20.951Z,40.56
2019-05-03T21:44:59.482Z,40.62
2019-05-03T21:47:47.986Z,40.70
2019-05-03T21:50:18.803Z,40.70
2019-05-03T21:52:48.228Z,40.70
2019-05-03T21:55:17.639Z,40.79
2019-05-03T21:57:47.033Z,40.99
2019-05-03T22:00:18.135Z,41.21
2019-05-03T22:02:47.731Z,41.56
2019-05-03T22:05:17.449Z,41.88
2019-05-03T22:07:46.813Z,41.99
2019-05-03T22:10:16.656Z,42.09
2019-05-03T22:12:46.031Z,42.17
2019-05-03T22:15:26.511Z,42.33
2019-05-03T22:18:11.923Z,42.62
2019-05-03T22:20:54.927Z,42.51
2019-05-03T22:23:46.340Z,42.93
2019-05-03T22:26:15.775Z,42.77
2019-05-03T22:28:46.086Z,43.23
2019-05-03T22:34:25.678Z,43.41
2019-05-03T22:36:55.358Z,43.55
2019-05-03T22:40:05.334Z,43.56
2019-05-03T22:42:35.687Z,43.56
2019-05-03T22:48:01.238Z,44.11
2019-05-03T22:50:30.623Z,44.22
2019-05-03T22:53:19.286Z,44.31
2019-05-03T22:58:50.163Z,44.70
2019-05-03T23:01:58.813Z,44.82
2019-05-03T23:04:39.945Z,45.10
2019-05-03T23:10:18.392Z,45.64
2019-05-03T23:13:27.168Z,45.83
2019-05-03T23:15:56.577Z,46.12
2019-05-03T23:18:26.180Z,46.21
2019-05-03T23:27:14.424Z,46.91
2019-05-03T23:29:45.454Z,47.02
2019-05-03T23:32:15.717Z,46.85
2019-05-03T23:34:46.447Z,46.88
2019-05-03T23:37:55.442Z,47.06
2019-05-03T23:41:04.971Z,47.25
2019-05-03T23:47:10.935Z,47.29
2019-05-03T23:52:49.027Z,47.53
2019-05-03T23:55:37.299Z,47.87
2019-05-03T23:58:46.572Z,47.43
